Time;durP1;ratioP1;P1;durP2;ratioP2;P2;SDS_P1;SDS_P2;PMS_P1;PMS_P2;Temp;Humidity;BMP_temperature;BMP_pressure;BME280_temperature;BME280_humidity;BME280_pressure;Samples;Min_cycle;Max_cycle;Signal;HPM_P1;HPM_P2
2021/01/08 00:01:46;;;;;;;51.53;33.42;;;102.90;2150.40;;;;;;4843330;29;20029;-79
2021/01/08 00:04:12;;;;;;;46.08;32.97;;;102.80;2150.40;;;;;;4842715;29;20022;-78
2021/01/08 00:06:38;;;;;;;46.35;32.22;;;102.80;2150.40;;;;;;4843941;29;20482;-78
2021/01/08 00:09:05;;;;;;;50.72;33.17;;;102.70;2176.00;;;;;;4842364;29;20086;-79
2021/01/08 00:11:35;;;;;;;43.50;29.70;;;102.70;2150.40;;;;;;4844186;29;20033;-78
2021/01/08 00:14:02;;;;;;;43.00;30.50;;;102.60;2176.00;;;;;;4844679;29;20033;-78
2021/01/08 00:16:31;;;;;;;47.17;30.90;;;102.70;2176.00;;;;;;4843163;29;20385;-79
2021/01/08 00:18:57;;;;;;;40.75;28.35;;;102.60;2176.00;;;;;;4843313;29;20068;-78
2021/01/08 00:21:23;;;;;;;40.20;27.92;;;102.60;2176.00;;;;;;4844437;29;20057;-79
2021/01/08 00:23:48;;;;;;;46.33;29.83;;;102.40;2201.60;;;;;;4843391;29;20033;-77
2021/01/08 00:26:21;;;;;;;47.97;31.90;;;102.50;2201.60;;;;;;4844240;29;20430;-78
2021/01/08 00:28:47;;;;;;;54.72;32.80;;;102.50;2201.60;;;;;;4842894;29;20030;-78
2021/01/08 00:31:13;;;;;;;44.30;30.27;;;102.50;2201.60;;;;;;4844466;29;20038;-78
2021/01/08 00:33:38;;;;;;;47.65;31.85;;;102.60;2201.60;;;;;;4844336;29;20110;-80
2021/01/08 00:36:04;;;;;;;51.28;33.58;;;102.50;2176.00;;;;;;4834411;29;20039;-80
2021/01/08 00:38:30;;;;;;;45.55;30.60;;;102.50;2201.60;;;;;;4824676;29;20081;-81
2021/01/08 00:40:55;;;;;;;41.58;29.02;;;102.50;2176.00;;;;;;4843405;29;20096;-79
2021/01/08 00:43:21;;;;;;;55.78;34.65;;;102.50;2176.00;;;;;;4842364;29;20044;-79
2021/01/08 00:45:49;;;;;;;48.92;30.77;;;102.40;2201.60;;;;;;4844231;29;20170;-78
2021/01/08 00:48:14;;;;;;;46.65;30.55;;;102.50;2201.60;;;;;;4829073;29;20031;-77
2021/01/08 00:50:40;;;;;;;48.63;30.33;;;102.50;2201.60;;;;;;4824919;29;20121;-78
2021/01/08 00:53:06;;;;;;;42.00;28.55;;;102.60;2176.00;;;;;;4836102;29;20042;-77
2021/01/08 00:55:31;;;;;;;45.33;31.65;;;102.60;2176.00;;;;;;4842437;29;20034;-76
2021/01/08 00:57:57;;;;;;;44.13;30.95;;;102.60;2176.00;;;;;;4844136;29;20033;-79
2021/01/08 01:00:23;;;;;;;39.70;27.63;;;102.60;2176.00;;;;;;4842463;29;20030;-78
2021/01/08 01:02:48;;;;;;;43.08;29.50;;;102.60;2176.00;;;;;;4843108;29;20034;-78
2021/01/08 01:05:14;;;;;;;42.42;29.05;;;102.60;2176.00;;;;;;4843948;29;20036;-78
2021/01/08 01:07:40;;;;;;;41.08;29.88;;;102.60;2176.00;;;;;;4844338;29;20063;-79
2021/01/08 01:10:06;;;;;;;44.58;29.92;;;102.60;2176.00;;;;;;4843433;29;20500;-78
2021/01/08 01:12:31;;;;;;;39.88;29.05;;;102.60;2176.00;;;;;;4844531;29;20034;-78
2021/01/08 01:14:57;;;;;;;44.45;28.65;;;102.70;2176.00;;;;;;4841938;29;20097;-79
2021/01/08 01:17:23;;;;;;;47.53;31.08;;;102.70;2150.40;;;;;;4831776;29;20395;-78
2021/01/08 01:19:48;;;;;;;49.90;35.78;;;102.70;2176.00;;;;;;4831598;29;20033;-79
2021/01/08 01:22:14;;;;;;;44.28;30.15;;;102.70;2176.00;;;;;;4835805;29;20026;-79
2021/01/08 01:24:40;;;;;;;43.25;30.65;;;102.70;2150.40;;;;;;4826665;29;20105;-79
2021/01/08 01:27:05;;;;;;;45.42;30.27;;;102.80;2176.00;;;;;;4832882;29;20126;-79
2021/01/08 01:29:31;;;;;;;46.13;31.40;;;102.70;2150.40;;;;;;4829499;29;20030;-79
2021/01/08 01:31:57;;;;;;;38.33;26.92;;;102.70;2150.40;;;;;;4837795;29;20144;-78
2021/01/08 01:34:22;;;;;;;38.72;27.65;;;102.80;2150.40;;;;;;4825557;29;20037;-79
2021/01/08 01:36:48;;;;;;;40.10;28.90;;;102.70;2150.40;;;;;;4824341;29;20821;-78
2021/01/08 01:39:14;;;;;;;36.08;26.45;;;102.70;2176.00;;;;;;4825613;29;20029;-78
2021/01/08 01:41:41;;;;;;;35.53;28.50;;;102.70;2176.00;;;;;;4825433;29;20029;-78
2021/01/08 01:44:07;;;;;;;35.85;28.13;;;102.70;2176.00;;;;;;4824607;29;20060;-78
2021/01/08 01:46:33;;;;;;;35.55;25.38;;;102.70;2176.00;;;;;;4823924;29;20106;-77
2021/01/08 01:49:00;;;;;;;40.08;27.38;;;102.70;2176.00;;;;;;4826066;29;20030;-78
2021/01/08 01:51:27;;;;;;;36.78;26.98;;;102.70;2176.00;;;;;;4825560;29;20030;-79
2021/01/08 01:53:52;;;;;;;38.30;26.58;;;102.70;2176.00;;;;;;4824162;29;20046;-79
2021/01/08 01:56:18;;;;;;;35.25;24.88;;;102.70;2176.00;;;;;;4823956;29;20540;-78
2021/01/08 01:58:44;;;;;;;35.50;27.00;;;102.70;2176.00;;;;;;4824375;29;20026;-78
2021/01/08 02:01:10;;;;;;;34.95;26.40;;;102.70;2176.00;;;;;;4825122;29;20035;-79
2021/01/08 02:03:50;;;;;;;34.03;25.08;;;102.80;2176.00;;;;;;4824406;29;20778;-78
2021/01/08 02:06:20;;;;;;;32.90;25.83;;;102.80;2176.00;;;;;;4826951;29;20030;-78
2021/01/08 02:08:53;;;;;;;42.38;29.13;;;102.70;2176.00;;;;;;4826743;29;20058;-77
2021/01/08 02:11:23;;;;;;;37.95;27.33;;;102.70;2176.00;;;;;;4826605;29;20025;-78
2021/01/08 02:13:59;;;;;;;36.30;26.83;;;102.80;2176.00;;;;;;4824976;29;20035;-78
2021/01/08 02:16:28;;;;;;;35.90;27.48;;;102.80;2176.00;;;;;;4823370;29;20026;-78
2021/01/08 02:18:55;;;;;;;37.28;27.77;;;102.80;2176.00;;;;;;4823314;29;20088;-78
2021/01/08 02:21:27;;;;;;;44.70;28.08;;;102.80;2176.00;;;;;;4821685;29;20109;-78
2021/01/08 02:24:29;;;;;;;52.55;28.90;;;102.80;2176.00;;;;;;4822006;29;20035;-78
2021/01/08 02:26:56;;;;;;;37.28;26.33;;;102.80;2176.00;;;;;;4821994;29;20064;-78
2021/01/08 02:29:22;;;;;;;34.42;25.58;;;102.80;2176.00;;;;;;4823760;29;20490;-78
2021/01/08 02:31:47;;;;;;;36.03;27.23;;;102.80;2201.60;;;;;;4826661;29;20125;-79
2021/01/08 02:34:13;;;;;;;52.42;32.35;;;102.80;2176.00;;;;;;4840080;29;20041;-79
2021/01/08 02:36:43;;;;;;;72.68;40.80;;;102.80;2176.00;;;;;;4840001;29;20465;-78
2021/01/08 02:39:11;;;;;;;68.63;36.55;;;102.80;2201.60;;;;;;4841656;29;20030;-78
2021/01/08 02:41:42;;;;;;;58.08;35.03;;;102.80;2176.00;;;;;;4840742;29;20026;-78
2021/01/08 02:44:08;;;;;;;67.95;38.47;;;102.70;2201.60;;;;;;4840270;29;20517;-78
2021/01/08 02:46:34;;;;;;;68.10;38.25;;;102.80;2201.60;;;;;;4840804;29;20398;-78
2021/01/08 02:49:00;;;;;;;59.25;34.08;;;102.80;2201.60;;;;;;4839458;29;20040;-78
2021/01/08 02:51:26;;;;;;;49.60;31.25;;;102.90;2176.00;;;;;;4840340;29;20059;-78
2021/01/08 02:53:54;;;;;;;40.92;30.42;;;102.80;2176.00;;;;;;4839797;29;20449;-78
2021/01/08 02:56:24;;;;;;;40.78;28.52;;;102.80;2176.00;;;;;;4840373;29;20065;-78
2021/01/08 02:58:52;;;;;;;44.92;31.00;;;102.80;2201.60;;;;;;4839775;29;20450;-78
2021/01/08 03:01:18;;;;;;;47.13;28.70;;;102.80;2201.60;;;;;;4840311;29;20386;-78
2021/01/08 03:03:44;;;;;;;40.10;27.50;;;102.80;2201.60;;;;;;4839476;29;20033;-78
2021/01/08 03:06:10;;;;;;;45.53;30.58;;;102.80;2176.00;;;;;;4841479;29;20030;-78
2021/01/08 03:08:36;;;;;;;42.83;27.80;;;102.80;2201.60;;;;;;4842734;29;20044;-78
2021/01/08 03:11:08;;;;;;;45.65;28.35;;;102.90;2201.60;;;;;;4843281;29;20401;-77
2021/01/08 03:13:36;;;;;;;49.72;30.85;;;102.90;2176.00;;;;;;4843132;29;20073;-77
2021/01/08 03:16:02;;;;;;;42.97;28.75;;;102.80;2176.00;;;;;;4843046;29;20038;-77
2021/01/08 03:18:28;;;;;;;44.42;31.92;;;102.80;2201.60;;;;;;4843806;29;20034;-77
2021/01/08 03:20:53;;;;;;;40.15;27.25;;;102.80;2201.60;;;;;;4844379;29;20394;-77
2021/01/08 03:23:19;;;;;;;42.85;27.75;;;102.80;2201.60;;;;;;4843634;29;20062;-78
2021/01/08 03:25:44;;;;;;;47.97;31.85;;;102.80;2201.60;;;;;;4843293;29;20053;-78
2021/01/08 03:28:10;;;;;;;50.72;32.67;;;102.70;2201.60;;;;;;4843715;29;20067;-77
2021/01/08 03:30:36;;;;;;;42.80;30.27;;;102.70;2201.60;;;;;;4842157;29;20041;-77
2021/01/08 03:33:02;;;;;;;40.97;27.85;;;102.70;2201.60;;;;;;4844212;29;20036;-77
2021/01/08 03:35:27;;;;;;;33.38;26.25;;;102.80;2201.60;;;;;;4843622;29;20030;-77
2021/01/08 03:37:53;;;;;;;37.30;26.63;;;102.80;2201.60;;;;;;4844250;29;20030;-78
2021/01/08 03:40:19;;;;;;;32.00;24.50;;;102.80;2201.60;;;;;;4843712;29;20390;-78
2021/01/08 03:42:44;;;;;;;33.55;26.75;;;102.80;2201.60;;;;;;4842905;29;20394;-78
2021/01/08 03:45:10;;;;;;;31.95;24.88;;;102.90;2201.60;;;;;;4843030;29;20438;-78
2021/01/08 03:47:36;;;;;;;33.33;25.10;;;102.90;2201.60;;;;;;4842672;29;20034;-78
2021/01/08 03:50:03;;;;;;;39.67;27.40;;;102.80;2201.60;;;;;;4843181;29;20098;-78
2021/01/08 03:52:29;;;;;;;32.38;25.55;;;102.80;2227.20;;;;;;4843843;29;20057;-77
2021/01/08 03:54:54;;;;;;;36.28;26.67;;;102.90;2201.60;;;;;;4844533;29;20071;-77
2021/01/08 03:57:20;;;;;;;36.20;26.35;;;102.90;2201.60;;;;;;4842682;29;20494;-78
2021/01/08 03:59:46;;;;;;;38.90;28.00;;;102.90;2201.60;;;;;;4843209;29;20462;-77
2021/01/08 04:02:11;;;;;;;35.22;28.55;;;102.90;2201.60;;;;;;4842792;29;20034;-77
2021/01/08 04:04:38;;;;;;;41.95;29.58;;;102.80;2201.60;;;;;;4843622;29;20074;-77
2021/01/08 04:07:04;;;;;;;41.25;28.58;;;102.80;2201.60;;;;;;4843267;29;20062;-78
2021/01/08 04:09:30;;;;;;;38.70;27.40;;;102.70;2227.20;;;;;;4842528;29;20041;-77
2021/01/08 04:11:55;;;;;;;41.65;30.95;;;102.70;2227.20;;;;;;4842817;29;20042;-78
2021/01/08 04:14:21;;;;;;;42.80;31.13;;;102.70;2227.20;;;;;;4842236;29;20073;-78
2021/01/08 04:16:47;;;;;;;41.38;28.40;;;102.60;2227.20;;;;;;4843112;29;20051;-78
2021/01/08 04:19:13;;;;;;;45.35;30.27;;;102.60;2227.20;;;;;;4842904;29;20096;-78
2021/01/08 04:21:39;;;;;;;41.15;29.63;;;102.70;2227.20;;;;;;4842704;29;20100;-78
2021/01/08 04:24:05;;;;;;;47.00;33.50;;;102.70;2227.20;;;;;;4842633;29;20037;-78
2021/01/08 04:26:31;;;;;;;42.28;30.80;;;102.70;2227.20;;;;;;4841980;29;20128;-77
2021/01/08 04:28:57;;;;;;;39.03;31.02;;;102.70;2227.20;;;;;;4843651;29;20030;-77
2021/01/08 04:31:23;;;;;;;40.63;30.45;;;102.70;2227.20;;;;;;4843994;29;20033;-78
2021/01/08 04:33:49;;;;;;;41.15;29.63;;;102.70;2227.20;;;;;;4844121;29;20030;-78
2021/01/08 04:36:15;;;;;;;38.22;28.25;;;102.70;2227.20;;;;;;4841921;29;20038;-78
2021/01/08 04:38:41;;;;;;;35.92;27.30;;;102.70;2227.20;;;;;;4843311;29;20071;-78
2021/01/08 04:41:07;;;;;;;38.95;27.95;;;102.70;2227.20;;;;;;4842683;29;20026;-79
2021/01/08 04:43:37;;;;;;;40.67;30.38;;;102.70;2227.20;;;;;;4843624;29;20108;-78
2021/01/08 04:46:23;;;;;;;36.25;27.45;;;102.70;2227.20;;;;;;4843463;29;20486;-78
2021/01/08 04:48:53;;;;;;;39.63;29.17;;;102.80;2227.20;;;;;;4843554;29;20042;-79
2021/01/08 04:51:19;;;;;;;43.35;29.30;;;102.80;2201.60;;;;;;4843049;29;20409;-79
2021/01/08 04:53:45;;;;;;;37.53;27.05;;;102.90;2201.60;;;;;;4842185;29;20034;-79
2021/01/08 04:56:12;;;;;;;31.58;25.83;;;102.80;2201.60;;;;;;4843775;29;20041;-79
2021/01/08 04:58:38;;;;;;;37.20;26.45;;;103.10;2201.60;;;;;;4842150;29;20082;-78
2021/01/08 05:01:04;;;;;;;33.17;26.35;;;102.80;2227.20;;;;;;4842979;29;20026;-78
2021/01/08 05:03:30;;;;;;;38.72;27.30;;;102.80;2227.20;;;;;;4843299;29;20090;-78
2021/01/08 05:05:58;;;;;;;30.40;25.15;;;102.80;2227.20;;;;;;4842199;29;20124;-77
2021/01/08 05:08:24;;;;;;;34.80;26.30;;;102.90;2227.20;;;;;;4843124;29;20044;-78
2021/01/08 05:10:50;;;;;;;42.33;29.25;;;102.90;2227.20;;;;;;4842083;29;20034;-78
2021/01/08 05:13:16;;;;;;;38.30;28.30;;;102.80;2227.20;;;;;;4842220;29;20149;-78
2021/01/08 05:15:52;;;;;;;39.90;30.67;;;102.90;2227.20;;;;;;4841990;29;20041;-79
2021/01/08 05:18:22;;;;;;;44.30;31.83;;;102.90;2201.60;;;;;;4844267;29;20466;-78
2021/01/08 05:20:51;;;;;;;46.67;34.38;;;102.80;2227.20;;;;;;4843446;29;20057;-78
2021/01/08 05:23:21;;;;;;;41.83;32.63;;;102.80;2227.20;;;;;;4843672;29;20037;-77
2021/01/08 05:25:47;;;;;;;39.72;30.58;;;102.80;2227.20;;;;;;4842483;29;20045;-78
2021/01/08 05:28:17;;;;;;;43.15;32.45;;;102.80;2227.20;;;;;;4842239;29;20033;-78
2021/01/08 05:30:43;;;;;;;42.50;31.48;;;102.80;2227.20;;;;;;4842259;29;20041;-77
2021/01/08 05:33:13;;;;;;;43.13;32.45;;;102.70;2227.20;;;;;;4841910;29;20038;-77
2021/01/08 05:35:39;;;;;;;47.53;31.48;;;102.60;2227.20;;;;;;4843607;29;20387;-77
2021/01/08 05:38:06;;;;;;;40.25;31.13;;;102.70;2227.20;;;;;;4843474;29;20033;-78
2021/01/08 05:40:33;;;;;;;37.05;29.33;;;102.70;2227.20;;;;;;4842687;29;20026;-77
2021/01/08 05:43:00;;;;;;;40.28;31.48;;;102.70;2227.20;;;;;;4843143;29;20030;-79
2021/01/08 05:45:28;;;;;;;40.05;29.25;;;102.80;2227.20;;;;;;4841815;29;20053;-79
2021/01/08 05:47:57;;;;;;;43.85;31.80;;;102.80;2227.20;;;;;;4842252;29;20571;-78
2021/01/08 05:50:24;;;;;;;39.50;30.02;;;102.80;2227.20;;;;;;4842256;29;20056;-79
2021/01/08 05:53:11;;;;;;;37.65;31.23;;;102.80;2227.20;;;;;;4842186;29;20033;-79
2021/01/08 05:55:39;;;;;;;41.97;30.45;;;102.80;2227.20;;;;;;4841849;29;20042;-79
2021/01/08 05:58:20;;;;;;;47.85;35.28;;;102.80;2227.20;;;;;;4841994;29;20033;-79
2021/01/08 06:00:59;;;;;;;42.17;30.65;;;102.80;2227.20;;;;;;4842628;29;20510;-79
2021/01/08 06:03:26;;;;;;;42.53;31.20;;;102.80;2227.20;;;;;;4843376;29;20034;-80
2021/01/08 06:05:54;;;;;;;44.47;31.92;;;102.80;2227.20;;;;;;4843373;29;20486;-80
2021/01/08 06:08:23;;;;;;;40.88;31.10;;;102.80;2227.20;;;;;;4842342;29;20515;-79
2021/01/08 06:10:52;;;;;;;44.55;31.60;;;102.70;2227.20;;;;;;4841736;29;20042;-78
2021/01/08 06:13:21;;;;;;;43.63;34.45;;;102.80;2227.20;;;;;;4842090;29;20071;-78
2021/01/08 06:15:49;;;;;;;41.22;30.05;;;102.80;2227.20;;;;;;4843370;29;20786;-79
2021/01/08 06:18:16;;;;;;;44.40;32.33;;;102.90;2227.20;;;;;;4843509;29;20025;-78
2021/01/08 06:20:42;;;;;;;49.85;35.42;;;102.90;2227.20;;;;;;4842029;29;20034;-78
2021/01/08 06:23:08;;;;;;;50.25;34.45;;;102.90;2201.60;;;;;;4841736;29;20059;-79
2021/01/08 06:25:34;;;;;;;43.45;33.60;;;102.90;2201.60;;;;;;4843373;29;20030;-79
2021/01/08 06:28:04;;;;;;;39.40;30.90;;;102.90;2201.60;;;;;;4842074;29;20034;-78
2021/01/08 06:30:33;;;;;;;38.15;30.15;;;102.90;2201.60;;;;;;4844061;29;20057;-78
2021/01/08 06:33:04;;;;;;;41.55;31.40;;;102.90;2201.60;;;;;;4843429;29;20442;-78
2021/01/08 06:35:32;;;;;;;51.58;37.33;;;102.90;2201.60;;;;;;4842857;29;20447;-78
2021/01/08 06:37:59;;;;;;;51.83;34.35;;;102.90;2201.60;;;;;;4842039;29;20026;-78
2021/01/08 06:40:39;;;;;;;51.03;36.00;;;102.90;2227.20;;;;;;4842715;29;20071;-78
2021/01/08 06:43:12;;;;;;;51.53;36.97;;;103.00;2201.60;;;;;;4843536;29;20026;-79
2021/01/08 06:45:38;;;;;;;60.05;43.00;;;103.00;2201.60;;;;;;4842502;29;20053;-79
2021/01/08 06:48:08;;;;;;;56.42;41.08;;;103.10;2201.60;;;;;;4844436;29;20041;-79
2021/01/08 06:50:40;;;;;;;55.05;40.42;;;103.10;2201.60;;;;;;4843171;29;20041;-78
2021/01/08 06:53:15;;;;;;;52.83;40.00;;;103.10;2201.60;;;;;;4843246;29;20038;-79
2021/01/08 06:55:46;;;;;;;47.28;36.83;;;103.10;2201.60;;;;;;4839908;29;20038;-79
2021/01/08 06:58:18;;;;;;;51.45;36.53;;;103.10;2201.60;;;;;;4839662;29;20089;-79
2021/01/08 07:00:50;;;;;;;55.95;38.28;;;103.20;2201.60;;;;;;4841392;29;20041;-79
2021/01/08 07:03:19;;;;;;;50.58;37.25;;;103.30;2201.60;;;;;;4839865;29;20485;-79
2021/01/08 07:05:46;;;;;;;48.75;37.83;;;103.30;2227.20;;;;;;4840977;29;20478;-79
2021/01/08 07:08:12;;;;;;;53.65;37.58;;;103.30;2201.60;;;;;;4840092;29;20038;-79
2021/01/08 07:10:38;;;;;;;54.03;37.97;;;128.00;2227.20;;;;;;4839750;29;20033;-79
2021/01/08 07:13:04;;;;;;;58.25;40.53;;;128.00;2227.20;;;;;;4840126;29;20078;-79
2021/01/08 07:15:32;;;;;;;64.82;44.70;;;128.00;2227.20;;;;;;4840715;29;20041;-79
2021/01/08 07:17:58;;;;;;;76.18;49.25;;;128.00;2227.20;;;;;;4840267;29;20390;-78
2021/01/08 07:20:25;;;;;;;85.25;59.40;;;128.00;2227.20;;;;;;4841065;29;20054;-79
2021/01/08 07:22:54;;;;;;;97.68;60.17;;;128.00;2227.20;;;;;;4840099;29;20125;-79
2021/01/08 07:25:22;;;;;;;90.40;61.45;;;128.00;2227.20;;;;;;4839528;29;20033;-79
2021/01/08 07:27:49;;;;;;;79.50;57.75;;;128.00;2227.20;;;;;;4839385;29;20034;-79
2021/01/08 07:30:15;;;;;;;86.50;60.42;;;128.10;2252.80;;;;;;4839834;29;20037;-79
2021/01/08 07:32:42;;;;;;;117.72;79.78;;;128.10;2227.20;;;;;;4839651;29;20435;-79
2021/01/08 07:35:17;;;;;;;116.50;83.07;;;128.20;2227.20;;;;;;4841263;29;20037;-79
2021/01/08 07:38:05;;;;;;;151.80;106.47;;;128.30;2227.20;;;;;;4841166;29;20026;-78
2021/01/08 07:40:36;;;;;;;112.35;80.97;;;128.30;2227.20;;;;;;4840660;29;20030;-78
2021/01/08 07:43:10;;;;;;;81.97;57.53;;;128.50;2227.20;;;;;;4839620;29;20417;-78
2021/01/08 07:45:59;;;;;;;80.18;56.17;;;128.50;2201.60;;;;;;4839163;29;20046;-77
2021/01/08 07:48:34;;;;;;;73.03;53.28;;;128.50;2227.20;;;;;;4838959;29;20041;-77
2021/01/08 07:51:03;;;;;;;105.28;75.75;;;128.70;2201.60;;;;;;4840089;29;20070;-77
2021/01/08 07:53:41;;;;;;;78.60;56.65;;;128.80;2201.60;;;;;;4839018;29;20034;-77
2021/01/08 07:56:15;;;;;;;65.72;48.13;;;128.80;2201.60;;;;;;4842121;29;20049;-78
2021/01/08 07:58:46;;;;;;;71.85;50.65;;;128.90;2176.00;;;;;;4842641;29;20074;-78
2021/01/08 08:01:13;;;;;;;46.38;35.58;;;128.80;2201.60;;;;;;4843301;29;20026;-78
2021/01/08 08:03:40;;;;;;;34.63;28.50;;;128.70;2227.20;;;;;;4844358;29;20034;-78
2021/01/08 08:06:07;;;;;;;37.35;28.13;;;128.70;2201.60;;;;;;4842392;29;20511;-78
2021/01/08 08:08:38;;;;;;;39.20;31.08;;;128.30;2227.20;;;;;;4842862;29;20478;-78
2021/01/08 08:11:15;;;;;;;43.95;31.73;;;128.20;2252.80;;;;;;4844482;29;20432;-78
2021/01/08 08:13:41;;;;;;;36.47;27.73;;;128.20;2252.80;;;;;;4843557;29;20040;-79
2021/01/08 08:16:07;;;;;;;37.53;27.85;;;128.30;2252.80;;;;;;4842965;29;20393;-78
2021/01/08 08:18:33;;;;;;;40.42;32.13;;;128.50;2227.20;;;;;;4842070;29;20026;-79
2021/01/08 08:21:06;;;;;;;39.30;31.75;;;128.70;2201.60;;;;;;4844273;29;20032;-79
2021/01/08 08:23:32;;;;;;;47.10;36.92;;;153.60;2176.00;;;;;;4842235;29;20048;-78
2021/01/08 08:25:57;;;;;;;54.75;37.95;;;153.70;2176.00;;;;;;4842868;29;20041;-78
2021/01/08 08:28:23;;;;;;;45.97;35.33;;;153.80;2150.40;;;;;;4842580;29;20061;-79
2021/01/08 08:30:52;;;;;;;41.58;30.48;;;153.90;2150.40;;;;;;4841694;29;20490;-79
2021/01/08 08:33:22;;;;;;;43.70;30.52;;;154.10;2124.80;;;;;;4842726;29;20393;-79
2021/01/08 08:35:49;;;;;;;68.07;45.22;;;154.20;2124.80;;;;;;4842341;29;20040;-78
2021/01/08 08:38:15;;;;;;;74.10;53.30;;;154.10;2099.20;;;;;;4841445;29;20042;-79
2021/01/08 08:40:41;;;;;;;84.95;60.15;;;154.10;2124.80;;;;;;4842347;29;20029;-79
2021/01/08 08:43:08;;;;;;;89.13;64.15;;;154.20;2124.80;;;;;;4843326;29;20034;-79
2021/01/08 08:45:34;;;;;;;103.85;73.07;;;154.20;2099.20;;;;;;4842148;29;20102;-79
2021/01/08 08:48:05;;;;;;;123.00;82.88;;;154.30;2099.20;;;;;;4840658;29;20034;-79
2021/01/08 08:50:33;;;;;;;86.85;58.10;;;154.20;2124.80;;;;;;4842517;29;20030;-78
2021/01/08 08:53:19;;;;;;;73.22;47.30;;;154.10;2124.80;;;;;;4842129;29;20026;-78
2021/01/08 08:55:47;;;;;;;57.60;37.90;;;154.00;2150.40;;;;;;4842037;29;20069;-79
2021/01/08 08:58:14;;;;;;;48.05;33.33;;;153.90;2150.40;;;;;;4843346;29;20373;-79
2021/01/08 09:00:43;;;;;;;53.60;36.90;;;153.80;2176.00;;;;;;4843313;29;20049;-79
2021/01/08 09:03:21;;;;;;;44.80;32.58;;;153.70;2176.00;;;;;;4843840;29;20101;-79
2021/01/08 09:05:52;;;;;;;32.83;25.15;;;153.70;2176.00;;;;;;4841588;29;20062;-79
2021/01/08 09:08:20;;;;;;;28.20;22.30;;;153.60;2176.00;;;;;;4842634;29;20034;-79
2021/01/08 09:11:02;;;;;;;31.33;23.80;;;153.60;2176.00;;;;;;4842017;29;20120;-79
2021/01/08 09:13:55;;;;;;;27.85;19.00;;;153.60;2201.60;;;;;;4843065;29;20439;-79
2021/01/08 09:16:28;;;;;;;31.65;22.20;;;153.60;2201.60;;;;;;4841777;29;20030;-78
2021/01/08 09:19:23;;;;;;;28.13;22.65;;;128.90;2201.60;;;;;;4842038;29;20033;-79
2021/01/08 09:21:51;;;;;;;25.63;19.33;;;128.70;2201.60;;;;;;4833260;29;20094;-79
2021/01/08 09:24:34;;;;;;;25.63;20.58;;;128.60;2227.20;;;;;;4841772;29;20094;-78
2021/01/08 09:27:01;;;;;;;28.60;22.00;;;128.50;2227.20;;;;;;4841601;29;20145;-78
2021/01/08 09:29:31;;;;;;;33.58;25.63;;;128.50;2252.80;;;;;;4841384;29;20030;-79
2021/01/08 09:31:57;;;;;;;33.83;26.00;;;128.50;2252.80;;;;;;4843602;29;20397;-79
2021/01/08 09:34:25;;;;;;;52.67;32.08;;;128.50;2252.80;;;;;;4841218;29;20036;-79
2021/01/08 09:36:53;;;;;;;33.80;24.48;;;128.60;2227.20;;;;;;4843157;29;20490;-79
2021/01/08 09:39:20;;;;;;;29.13;21.73;;;128.70;2227.20;;;;;;4843563;29;20030;-79
2021/01/08 09:41:58;;;;;;;31.00;23.05;;;128.50;2227.20;;;;;;4841899;29;20030;-79
2021/01/08 09:44:35;;;;;;;32.03;24.13;;;128.50;2252.80;;;;;;4841736;29;20080;-79
2021/01/08 09:47:01;;;;;;;34.22;24.92;;;128.50;2252.80;;;;;;4842523;29;20100;-79
2021/01/08 09:49:50;;;;;;;30.15;22.95;;;128.50;2252.80;;;;;;4841731;29;20022;-79
2021/01/08 09:52:16;;;;;;;69.07;40.38;;;128.50;2252.80;;;;;;4843123;29;20040;-80
2021/01/08 09:54:44;;;;;;;68.78;46.45;;;128.60;2252.80;;;;;;4841260;29;20478;-78
2021/01/08 09:57:30;;;;;;;43.08;29.83;;;128.70;2227.20;;;;;;4841753;29;20391;-79
2021/01/08 10:00:00;;;;;;;31.75;23.38;;;128.70;2227.20;;;;;;4843072;29;20030;-79
2021/01/08 10:02:37;;;;;;;45.58;31.25;;;128.80;2201.60;;;;;;4840789;29;20078;-79
2021/01/08 10:05:08;;;;;;;66.78;44.22;;;128.90;2227.20;;;;;;4843166;29;20387;-79
2021/01/08 10:07:41;;;;;;;46.85;31.00;;;153.70;2201.60;;;;;;4842851;29;20029;-79
2021/01/08 10:10:09;;;;;;;23.60;18.20;;;153.70;2201.60;;;;;;4841454;29;20058;-79
2021/01/08 10:12:49;;;;;;;23.65;17.73;;;128.90;2201.60;;;;;;4843137;29;20025;-79
2021/01/08 10:15:17;;;;;;;21.05;16.55;;;128.80;2201.60;;;;;;4841084;29;20038;-79
2021/01/08 10:17:46;;;;;;;21.27;17.60;;;128.80;2201.60;;;;;;4842470;29;20101;-79
2021/01/08 10:20:15;;;;;;;25.45;18.83;;;128.80;2227.20;;;;;;4842907;29;20158;-79
2021/01/08 10:22:47;;;;;;;27.08;20.75;;;128.80;2201.60;;;;;;4841088;29;20503;-78
2021/01/08 10:25:27;;;;;;;28.27;22.10;;;128.70;2252.80;;;;;;4841563;29;20041;-78
2021/01/08 10:27:54;;;;;;;30.85;20.38;;;128.70;2252.80;;;;;;4841035;29;20034;-78
2021/01/08 10:30:21;;;;;;;27.05;20.27;;;128.70;2252.80;;;;;;4842754;29;20041;-77
2021/01/08 10:32:48;;;;;;;25.95;20.42;;;128.70;2252.80;;;;;;4841727;29;20038;-78
2021/01/08 10:35:19;;;;;;;29.73;19.70;;;128.60;2227.20;;;;;;4840536;29;20054;-78
2021/01/08 10:37:48;;;;;;;25.58;19.13;;;128.50;2227.20;;;;;;4842459;29;20498;-78
2021/01/08 10:40:14;;;;;;;28.33;20.20;;;128.60;2227.20;;;;;;4842301;29;20030;-78
2021/01/08 10:42:40;;;;;;;31.35;22.25;;;128.60;2252.80;;;;;;4841404;29;20030;-78
2021/01/08 10:45:06;;;;;;;25.48;20.80;;;128.60;2252.80;;;;;;4842548;29;20046;-78
2021/01/08 10:47:32;;;;;;;37.60;25.50;;;128.30;2252.80;;;;;;4841768;29;20063;-79
2021/01/08 10:50:00;;;;;;;25.60;19.08;;;128.60;2252.80;;;;;;4841727;29;20026;-79
2021/01/08 10:52:26;;;;;;;23.23;16.98;;;128.70;2252.80;;;;;;4842454;29;20030;-79
2021/01/08 10:54:52;;;;;;;22.48;16.45;;;128.80;2252.80;;;;;;4842430;29;20125;-79
2021/01/08 10:57:18;;;;;;;16.35;12.38;;;153.60;2227.20;;;;;;4842037;29;20073;-79
2021/01/08 10:59:44;;;;;;;16.55;12.60;;;153.70;2176.00;;;;;;4841774;29;20056;-79
2021/01/08 11:02:13;;;;;;;18.00;13.57;;;153.80;2150.40;;;;;;4841611;29;20029;-79
2021/01/08 11:04:43;;;;;;;17.83;13.27;;;154.00;2124.80;;;;;;4842245;29;20072;-80
2021/01/08 11:07:09;;;;;;;16.83;13.70;;;154.00;2124.80;;;;;;4843551;29;20091;-79
2021/01/08 11:09:36;;;;;;;16.50;13.40;;;154.10;2099.20;;;;;;4842897;29;20467;-79
2021/01/08 11:12:02;;;;;;;12.82;10.43;;;154.30;2099.20;;;;;;4842311;29;20033;-79
2021/01/08 11:14:28;;;;;;;10.13;7.43;;;154.30;2073.60;;;;;;4842927;29;20048;-78
2021/01/08 11:16:53;;;;;;;10.57;8.55;;;154.30;2073.60;;;;;;4843772;29;20545;-79
2021/01/08 11:19:19;;;;;;;15.13;10.18;;;154.40;2073.60;;;;;;4841845;29;20037;-78
2021/01/08 11:21:46;;;;;;;13.88;9.73;;;154.40;2073.60;;;;;;4842427;29;20685;-78
2021/01/08 11:24:12;;;;;;;15.20;10.98;;;154.40;2073.60;;;;;;4842157;29;20037;-78
2021/01/08 11:26:37;;;;;;;12.13;9.90;;;179.20;2073.60;;;;;;4842660;29;20099;-82
2021/01/08 11:29:03;;;;;;;10.63;7.85;;;179.30;2073.60;;;;;;4844301;29;20397;-80
2021/01/08 11:31:35;;;;;;;14.63;10.27;;;179.20;2022.40;;;;;;4848192;29;20398;-83
2021/01/08 11:34:10;;;;;;;20.88;14.73;;;179.40;2073.60;;;;;;4825914;29;20038;-79
2021/01/08 11:36:38;;;;;;;20.45;12.70;;;179.30;2073.60;;;;;;4840554;29;20038;-79
2021/01/08 11:39:05;;;;;;;36.40;22.92;;;179.20;2048.00;;;;;;4844387;29;20034;-79
2021/01/08 11:41:31;;;;;;;16.73;12.60;;;179.20;1996.80;;;;;;4842597;29;20041;-79
2021/01/08 11:43:56;;;;;;;14.57;10.90;;;154.40;1996.80;;;;;;4844493;29;20042;-80
2021/01/08 11:46:23;;;;;;;22.00;14.80;;;154.20;1971.20;;;;;;4844174;29;20037;-80
2021/01/08 11:48:52;;;;;;;11.23;8.57;;;154.20;1996.80;;;;;;4844718;29;20034;-78
2021/01/08 11:51:18;;;;;;;10.57;7.90;;;154.10;1996.80;;;;;;4842063;29;20052;-80
2021/01/08 11:53:45;;;;;;;13.10;10.27;;;154.00;1971.20;;;;;;4830173;29;20064;-79
2021/01/08 11:56:11;;;;;;;18.98;12.82;;;153.90;1996.80;;;;;;4843107;29;20038;-80
2021/01/08 11:58:41;;;;;;;18.60;14.00;;;153.90;2048.00;;;;;;4842995;29;20045;-80
2021/01/08 12:01:08;;;;;;;18.85;14.48;;;153.80;2099.20;;;;;;4832891;29;20485;-79
2021/01/08 12:03:36;;;;;;;17.38;13.63;;;153.80;2099.20;;;;;;4843869;29;20486;-79
2021/01/08 12:06:03;;;;;;;21.10;14.02;;;153.80;2099.20;;;;;;4827543;29;20449;-79